Time;durP1;ratioP1;P1;durP2;ratioP2;P2;SDS_P1;SDS_P2;PMS_P1;PMS_P2;Temp;Humidity;BMP_temperature;BMP_pressure;BME280_temperature;BME280_humidity;BME280_pressure;Samples;Min_cycle;Max_cycle;Signal;HPM_P1;HPM_P2
2024/01/22 00:01:44;;;;;;;28.00;20.30;;;;;;;0.59;74.28;101291.83;109777;1286;22168;-81
2024/01/22 00:04:11;;;;;;;29.80;21.50;;;;;;;0.60;74.13;101293.80;109724;1286;22233;-81
2024/01/22 00:06:40;;;;;;;26.90;20.00;;;;;;;0.61;74.31;101292.27;109717;1286;22170;-82
2024/01/22 00:09:07;;;;;;;28.70;20.90;;;;;;;0.60;73.77;101283.73;109783;1286;22950;-80
2024/01/22 00:11:35;;;;;;;29.30;21.30;;;;;;;0.56;73.70;101283.88;109653;1286;22380;-81
2024/01/22 00:14:02;;;;;;;28.80;21.00;;;;;;;0.53;73.61;101275.95;109861;1282;22516;-82
2024/01/22 00:16:29;;;;;;;32.00;23.40;;;;;;;0.49;73.72;101273.02;109972;1279;22271;-81
2024/01/22 00:18:56;;;;;;;28.20;22.00;;;;;;;0.49;73.77;101262.43;109981;1282;22755;-81
2024/01/22 00:21:23;;;;;;;25.70;20.30;;;;;;;0.47;73.56;101259.40;109936;1281;22215;-82
2024/01/22 00:23:50;;;;;;;27.70;20.30;;;;;;;0.47;73.53;101252.99;110168;1276;22862;-82
2024/01/22 00:26:19;;;;;;;26.60;19.30;;;;;;;0.48;73.39;101254.42;109877;1282;22168;-82
2024/01/22 00:28:46;;;;;;;27.60;20.50;;;;;;;0.50;73.50;101251.39;109988;1276;23021;-79
2024/01/22 00:31:14;;;;;;;28.00;20.90;;;;;;;0.48;73.06;101241.25;109928;1283;22171;-81
2024/01/22 00:33:44;;;;;;;27.90;20.10;;;;;;;0.48;73.30;101232.90;109855;1282;22397;-81
2024/01/22 00:36:13;;;;;;;27.30;20.20;;;;;;;0.47;73.09;101228.37;109935;1282;22365;-82
2024/01/22 00:38:41;;;;;;;26.60;20.40;;;;;;;0.48;73.09;101229.11;109654;1285;22267;-81
2024/01/22 00:41:08;;;;;;;29.30;20.60;;;;;;;0.48;73.06;101226.19;109567;1288;22229;-81
2024/01/22 00:43:36;;;;;;;27.90;20.00;;;;;;;0.47;72.76;101223.02;109679;1284;22961;-81
2024/01/22 00:46:03;;;;;;;27.90;20.50;;;;;;;0.46;72.78;101220.88;109953;1283;22497;-81
2024/01/22 00:48:30;;;;;;;26.70;18.50;;;;;;;0.47;72.70;101213.30;110006;1277;22157;-81
2024/01/22 00:50:57;;;;;;;27.10;18.80;;;;;;;0.49;72.44;101210.24;109947;1282;22173;-81
2024/01/22 00:53:25;;;;;;;27.40;19.70;;;;;;;0.48;72.27;101202.95;109878;1283;22168;-81
2024/01/22 00:55:52;;;;;;;24.70;19.00;;;;;;;0.48;72.20;101194.27;110080;1275;22444;-82
2024/01/22 00:58:19;;;;;;;24.70;19.30;;;;;;;0.48;72.13;101196.04;110362;1276;22328;-81
2024/01/22 01:00:46;;;;;;;26.30;19.10;;;;;;;0.44;71.76;101192.54;110413;1275;22118;-80
2024/01/22 01:03:14;;;;;;;25.60;19.70;;;;;;;0.44;71.79;101199.61;110195;1272;22210;-82
2024/01/22 01:05:41;;;;;;;27.00;19.10;;;;;;;0.42;71.54;101197.09;110399;1276;22144;-82
2024/01/22 01:08:09;;;;;;;25.00;19.20;;;;;;;0.37;71.23;101192.19;110358;1272;22179;-82
2024/01/22 01:10:35;;;;;;;28.70;19.50;;;;;;;0.30;70.95;101182.00;110375;1276;22905;-82
2024/01/22 01:13:03;;;;;;;28.30;19.50;;;;;;;0.25;71.15;101177.82;110224;1273;23294;-83
2024/01/22 01:15:30;;;;;;;23.70;18.80;;;;;;;0.23;70.95;101170.98;110085;1276;22243;-81
2024/01/22 01:17:57;;;;;;;25.30;17.30;;;;;;;0.26;71.02;101177.34;110181;1273;22338;-83
2024/01/22 01:20:24;;;;;;;23.60;17.40;;;;;;;0.30;70.78;101177.67;110081;1276;22139;-81
2024/01/22 01:22:52;;;;;;;26.10;17.40;;;;;;;0.29;70.33;101170.90;110143;1276;22118;-80
2024/01/22 01:25:19;;;;;;;24.30;17.10;;;;;;;0.23;69.95;101166.26;110284;1275;22119;-80
2024/01/22 01:27:45;;;;;;;25.40;17.80;;;;;;;0.18;69.89;101167.80;110061;1276;22121;-81
2024/01/22 01:30:13;;;;;;;27.10;18.10;;;;;;;0.18;70.13;101169.34;110149;1276;22113;-81
2024/01/22 01:32:40;;;;;;;27.40;17.90;;;;;;;0.17;70.03;101180.21;110180;1276;22983;-82
2024/01/22 01:35:08;;;;;;;22.50;17.60;;;;;;;0.16;69.89;101187.62;110149;1276;22230;-81
2024/01/22 01:37:37;;;;;;;24.50;17.70;;;;;;;0.13;69.60;101187.13;110392;1270;23116;-80
2024/01/22 01:40:05;;;;;;;25.00;17.60;;;;;;;0.09;69.50;101187.30;110277;1272;22605;-81
2024/01/22 01:42:32;;;;;;;22.70;17.40;;;;;;;0.07;69.40;101179.40;110055;1276;23120;-81
2024/01/22 01:44:59;;;;;;;23.90;17.80;;;;;;;0.03;69.32;101173.54;109920;1277;22203;-81
2024/01/22 01:47:28;;;;;;;26.10;17.80;;;;;;;0.02;69.30;101169.66;109933;1283;22161;-81
2024/01/22 01:49:55;;;;;;;23.40;17.30;;;;;;;0.04;69.39;101171.31;109856;1282;22893;-80
2024/01/22 01:52:22;;;;;;;25.60;17.70;;;;;;;0.05;69.30;101172.73;109891;1283;22442;-81
2024/01/22 01:54:51;;;;;;;27.40;16.70;;;;;;;0.05;68.96;101173.08;109935;1277;22188;-81
2024/01/22 01:57:21;;;;;;;22.50;17.00;;;;;;;0.03;68.68;101178.73;109845;1283;22145;-81
2024/01/22 01:59:48;;;;;;;23.20;16.70;;;;;;;0.03;68.76;101183.38;109918;1283;22205;-83
2024/01/22 02:02:15;;;;;;;22.40;16.50;;;;;;;0.04;68.55;101182.23;109979;1276;22148;-80
2024/01/22 02:04:42;;;;;;;25.60;17.20;;;;;;;-0.00;68.21;101185.49;110156;1276;22139;-81
2024/01/22 02:07:10;;;;;;;20.80;15.80;;;;;;;-0.04;68.10;101178.71;110344;1275;22862;-80
2024/01/22 02:09:48;;;;;;;21.40;15.80;;;;;;;-0.08;67.99;101169.88;109938;1281;22177;-81
2024/01/22 02:12:18;;;;;;;22.30;16.10;;;;;;;-0.09;68.21;101172.11;109937;1277;22158;-82
2024/01/22 02:14:46;;;;;;;25.10;17.50;;;;;;;-0.11;68.02;101172.00;109955;1281;22329;-81
2024/01/22 02:17:14;;;;;;;23.10;16.10;;;;;;;-0.11;68.04;101173.38;109909;1281;22265;-82
2024/01/22 02:19:42;;;;;;;21.80;15.50;;;;;;;-0.12;67.72;101170.59;109674;1286;22247;-82
2024/01/22 02:22:11;;;;;;;22.70;16.30;;;;;;;-0.16;67.23;101163.64;109622;1286;22175;-82
2024/01/22 02:24:38;;;;;;;21.50;16.00;;;;;;;-0.19;67.52;101161.40;109759;1286;22170;-80
2024/01/22 02:27:05;;;;;;;24.30;16.50;;;;;;;-0.18;67.74;101162.17;109686;1281;23325;-80
2024/01/22 02:29:33;;;;;;;22.70;15.70;;;;;;;-0.18;67.31;101164.08;109939;1281;22911;-81
2024/01/22 02:32:00;;;;;;;21.00;15.80;;;;;;;-0.19;67.23;101166.77;110013;1281;22203;-80
2024/01/22 02:34:27;;;;;;;22.20;14.60;;;;;;;-0.21;66.98;101164.06;109971;1276;22234;-81
2024/01/22 02:36:55;;;;;;;22.90;15.60;;;;;;;-0.22;66.86;101155.91;110017;1276;22896;-82
2024/01/22 02:39:22;;;;;;;21.50;15.80;;;;;;;-0.21;66.98;101151.77;110181;1276;22129;-81
2024/01/22 02:41:49;;;;;;;20.80;15.10;;;;;;;-0.20;66.77;101150.99;110374;1276;22767;-80
2024/01/22 02:44:16;;;;;;;22.80;15.60;;;;;;;-0.21;66.69;101143.51;110273;1273;22468;-80
2024/01/22 02:46:43;;;;;;;18.60;14.10;;;;;;;-0.21;66.55;101133.80;110383;1276;22085;-81
2024/01/22 02:49:11;;;;;;;20.90;14.60;;;;;;;-0.22;66.63;101116.75;110273;1276;22974;-83
2024/01/22 02:51:43;;;;;;;21.70;14.30;;;;;;;-0.24;66.44;101110.61;110266;1276;22110;-82
2024/01/22 02:54:12;;;;;;;21.50;14.60;;;;;;;-0.26;66.25;101105.88;110261;1273;22220;-82
2024/01/22 02:56:39;;;;;;;21.10;14.20;;;;;;;-0.25;66.14;101098.48;109924;1278;22384;-82
2024/01/22 02:59:07;;;;;;;22.10;14.10;;;;;;;-0.24;65.85;101090.36;109960;1283;22178;-82
2024/01/22 03:01:34;;;;;;;19.10;13.10;;;;;;;-0.22;65.83;101085.09;109870;1283;22168;-81
2024/01/22 03:04:02;;;;;;;19.10;13.40;;;;;;;-0.20;65.66;101088.98;109938;1277;22167;-83
2024/01/22 03:06:29;;;;;;;20.10;13.40;;;;;;;-0.19;65.55;101088.02;109884;1283;22207;-82
2024/01/22 03:08:57;;;;;;;18.90;13.00;;;;;;;-0.20;65.20;101085.02;109851;1278;23092;-82
2024/01/22 03:11:24;;;;;;;18.40;12.60;;;;;;;-0.20;64.86;101085.38;109803;1281;22155;-80
2024/01/22 03:13:51;;;;;;;19.00;12.80;;;;;;;-0.22;64.74;101081.95;109790;1283;22166;-80
2024/01/22 03:16:18;;;;;;;14.50;11.70;;;;;;;-0.20;64.89;101085.02;109762;1283;22238;-79
2024/01/22 03:18:45;;;;;;;17.20;11.90;;;;;;;-0.20;64.41;101084.13;109889;1283;22311;-80
2024/01/22 03:21:12;;;;;;;18.40;12.60;;;;;;;-0.20;64.49;101084.34;110100;1276;22200;-81
2024/01/22 03:23:40;;;;;;;16.80;12.10;;;;;;;-0.20;63.95;101089.02;109852;1282;22223;-82
2024/01/22 03:26:07;;;;;;;21.70;12.20;;;;;;;-0.20;64.10;101091.42;109943;1277;22170;-81
2024/01/22 03:28:34;;;;;;;15.20;12.50;;;;;;;-0.18;63.73;101083.37;109957;1279;22217;-82
2024/01/22 03:31:01;;;;;;;17.50;11.80;;;;;;;-0.18;63.62;101077.84;109934;1277;22398;-82
2024/01/22 03:33:28;;;;;;;17.70;11.20;;;;;;;-0.18;63.27;101075.93;109957;1280;22171;-81
2024/01/22 03:35:55;;;;;;;16.60;12.10;;;;;;;-0.20;62.72;101072.23;109904;1269;22175;-81
2024/01/22 03:38:22;;;;;;;17.50;10.80;;;;;;;-0.22;62.86;101078.02;109884;1283;22158;-81
2024/01/22 03:40:50;;;;;;;19.00;11.90;;;;;;;-0.20;63.13;101068.74;109640;1284;22404;-82
2024/01/22 03:43:18;;;;;;;14.70;10.50;;;;;;;-0.18;63.14;101067.11;109784;1284;22348;-81
2024/01/22 03:45:45;;;;;;;17.10;11.40;;;;;;;-0.19;62.78;101062.38;109847;1285;22177;-80
2024/01/22 03:48:12;;;;;;;20.40;11.80;;;;;;;-0.18;62.98;101069.69;109837;1278;22120;-82
2024/01/22 03:50:41;;;;;;;16.50;10.00;;;;;;;-0.16;62.72;101065.15;109896;1283;22226;-84
2024/01/22 03:53:08;;;;;;;16.10;10.40;;;;;;;-0.14;62.36;101064.34;109914;1283;22169;-82
2024/01/22 03:55:35;;;;;;;17.30;10.00;;;;;;;-0.14;62.31;101065.38;109928;1277;22231;-82
2024/01/22 03:58:02;;;;;;;17.00;11.20;;;;;;;-0.13;62.23;101065.77;109579;1283;22190;-82
2024/01/22 04:00:29;;;;;;;17.60;11.40;;;;;;;-0.10;62.39;101064.34;109855;1277;22161;-82
2024/01/22 04:02:57;;;;;;;17.90;10.50;;;;;;;-0.09;62.05;101061.28;109767;1284;22651;-81
2024/01/22 04:05:24;;;;;;;15.50;10.20;;;;;;;-0.11;61.91;101058.75;109895;1277;22444;-81
2024/01/22 04:07:52;;;;;;;20.00;11.90;;;;;;;-0.10;61.94;101055.33;109917;1278;22161;-81
2024/01/22 04:10:19;;;;;;;16.90;10.80;;;;;;;-0.10;61.82;101054.14;109810;1283;22253;-81
2024/01/22 04:12:46;;;;;;;17.80;11.00;;;;;;;-0.10;61.56;101047.70;109856;1282;22336;-81
2024/01/22 04:15:14;;;;;;;17.20;10.70;;;;;;;-0.13;61.42;101041.89;109851;1278;22371;-81
2024/01/22 04:17:42;;;;;;;20.50;11.00;;;;;;;-0.13;61.59;101034.08;110102;1275;22216;-81
2024/01/22 04:20:11;;;;;;;17.40;11.20;;;;;;;-0.13;61.63;101032.02;110144;1278;22125;-81
2024/01/22 04:22:37;;;;;;;17.70;10.80;;;;;;;-0.12;61.53;101028.05;110124;1273;22139;-82
2024/01/22 04:25:06;;;;;;;18.60;10.10;;;;;;;-0.13;61.24;101019.05;110347;1278;22610;-82
2024/01/22 04:27:34;;;;;;;16.50;11.60;;;;;;;-0.12;61.67;101010.76;110146;1278;22765;-81
2024/01/22 04:30:02;;;;;;;16.90;11.60;;;;;;;-0.08;61.68;101017.16;110245;1272;22149;-80
2024/01/22 04:32:31;;;;;;;16.00;11.50;;;;;;;-0.06;61.64;101018.11;110263;1272;22306;-81
2024/01/22 04:34:58;;;;;;;21.30;12.00;;;;;;;-0.06;61.43;101014.13;110149;1278;22141;-81
2024/01/22 04:37:25;;;;;;;18.70;11.40;;;;;;;-0.07;61.20;101009.09;110453;1271;22224;-81
2024/01/22 04:39:53;;;;;;;15.10;10.90;;;;;;;-0.06;61.54;101001.30;110267;1277;22143;-82
2024/01/22 04:42:20;;;;;;;25.10;12.60;;;;;;;-0.02;61.68;100998.02;110235;1277;22285;-81
2024/01/22 04:44:47;;;;;;;16.00;11.50;;;;;;;0.02;61.50;101003.40;110218;1277;22183;-81
2024/01/22 04:47:16;;;;;;;17.10;11.40;;;;;;;0.02;61.28;100995.78;110240;1272;22204;-80
2024/01/22 04:49:45;;;;;;;17.70;11.60;;;;;;;0.06;61.12;100989.52;110281;1277;22136;-81
2024/01/22 04:52:14;;;;;;;16.50;11.30;;;;;;;0.09;60.77;100971.48;110240;1275;22425;-82
2024/01/22 04:54:42;;;;;;;20.40;11.60;;;;;;;0.11;60.86;100965.69;110145;1276;22151;-82
2024/01/22 04:57:09;;;;;;;16.80;11.80;;;;;;;0.15;60.89;100967.20;110158;1275;22915;-80
2024/01/22 04:59:36;;;;;;;18.50;11.50;;;;;;;0.14;60.92;100956.27;110316;1276;23081;-82
2024/01/22 05:02:03;;;;;;;16.90;11.40;;;;;;;0.13;60.90;100950.17;110311;1272;22942;-81
2024/01/22 05:04:32;;;;;;;18.30;12.00;;;;;;;0.12;60.93;100953.77;110066;1278;22215;-81
2024/01/22 05:06:59;;;;;;;17.30;12.50;;;;;;;0.13;60.82;100952.93;110181;1278;22866;-82
2024/01/22 05:09:26;;;;;;;15.00;11.50;;;;;;;0.11;60.81;100961.00;109887;1280;22298;-82
2024/01/22 05:11:54;;;;;;;13.20;10.50;;;;;;;0.09;60.61;100961.96;109978;1283;22161;-80
2024/01/22 05:14:23;;;;;;;18.40;11.30;;;;;;;0.09;60.41;100953.98;109977;1283;22662;-82
2024/01/22 05:16:50;;;;;;;18.80;11.90;;;;;;;0.08;60.42;100944.06;109756;1289;22451;-81
2024/01/22 05:19:18;;;;;;;21.00;12.50;;;;;;;0.08;60.50;100939.39;109679;1283;22837;-82
2024/01/22 05:21:48;;;;;;;17.30;11.40;;;;;;;0.07;60.47;100932.58;109596;1283;22781;-81
2024/01/22 05:24:15;;;;;;;17.90;11.20;;;;;;;0.06;60.62;100926.66;109614;1286;22203;-82
2024/01/22 05:26:42;;;;;;;17.10;11.20;;;;;;;0.03;60.39;100930.52;109558;1283;22400;-80
2024/01/22 05:29:10;;;;;;;19.10;12.20;;;;;;;-0.04;59.82;100927.46;109919;1283;22944;-80
2024/01/22 05:31:37;;;;;;;20.30;12.70;;;;;;;-0.07;60.22;100928.02;109816;1283;22954;-81
2024/01/22 05:34:05;;;;;;;20.30;12.40;;;;;;;-0.09;60.03;100933.31;109623;1289;22189;-82
2024/01/22 05:36:32;;;;;;;19.50;12.00;;;;;;;-0.07;60.22;100930.13;109629;1286;23023;-81
2024/01/22 05:38:59;;;;;;;19.30;12.30;;;;;;;-0.05;59.99;100926.90;109618;1288;22165;-83
2024/01/22 05:41:26;;;;;;;24.10;12.90;;;;;;;-0.07;60.04;100926.16;109701;1281;22948;-81
2024/01/22 05:43:53;;;;;;;20.10;13.70;;;;;;;-0.06;59.89;100920.81;109940;1281;22933;-83
2024/01/22 05:46:20;;;;;;;21.20;12.70;;;;;;;-0.08;59.93;100917.44;109974;1280;23036;-82
2024/01/22 05:48:48;;;;;;;17.60;11.50;;;;;;;-0.08;59.92;100913.09;109971;1281;23018;-81
2024/01/22 05:51:15;;;;;;;17.10;12.00;;;;;;;-0.06;59.92;100903.48;109992;1278;22350;-82
2024/01/22 05:53:45;;;;;;;18.70;11.80;;;;;;;-0.03;59.89;100894.61;110196;1276;22098;-81
2024/01/22 05:56:27;;;;;;;17.70;11.80;;;;;;;-0.02;59.98;100890.85;110204;1270;22892;-80
2024/01/22 05:58:55;;;;;;;19.70;11.60;;;;;;;-0.03;59.92;100883.02;110481;1276;22154;-80
2024/01/22 06:01:27;;;;;;;21.00;11.30;;;;;;;-0.04;59.79;100879.17;110408;1276;22192;-80
2024/01/22 06:03:54;;;;;;;17.40;11.50;;;;;;;-0.04;59.81;100880.02;110226;1276;22352;-81
2024/01/22 06:06:23;;;;;;;18.20;11.70;;;;;;;-0.01;59.66;100882.08;110356;1269;22110;-81
2024/01/22 06:08:52;;;;;;;17.20;11.40;;;;;;;-0.02;59.64;100871.96;110301;1272;22837;-81
2024/01/22 06:11:20;;;;;;;21.00;11.90;;;;;;;-0.03;59.58;100869.50;110302;1276;22214;-82
2024/01/22 06:13:47;;;;;;;19.30;12.00;;;;;;;-0.01;59.74;100863.01;110382;1275;22943;-82
2024/01/22 06:16:27;;;;;;;15.50;11.60;;;;;;;0.02;59.59;100854.10;110385;1261;22142;-81
2024/01/22 06:18:54;;;;;;;17.10;11.50;;;;;;;0.00;59.64;100847.81;110291;1276;22307;-81
2024/01/22 06:21:25;;;;;;;16.90;11.50;;;;;;;0.04;59.67;100835.67;109855;1282;22981;-81
2024/01/22 06:23:57;;;;;;;21.40;10.80;;;;;;;0.07;59.56;100830.27;109593;1281;23038;-81
2024/01/22 06:26:24;;;;;;;20.50;12.40;;;;;;;0.10;59.50;100816.52;109616;1289;22196;-80
2024/01/22 06:28:54;;;;;;;18.50;12.10;;;;;;;0.13;59.53;100807.61;109225;1290;22277;-82
2024/01/22 06:31:22;;;;;;;19.70;11.90;;;;;;;0.12;59.39;100797.88;109152;1290;22179;-81
2024/01/22 06:33:51;;;;;;;20.30;11.90;;;;;;;0.08;59.12;100792.37;109355;1290;22920;-81
2024/01/22 06:36:18;;;;;;;20.40;12.70;;;;;;;0.04;59.22;100788.21;109469;1286;22429;-81
2024/01/22 06:38:46;;;;;;;17.20;10.40;;;;;;;0.03;59.17;100787.31;109288;1286;22299;-82
2024/01/22 06:41:14;;;;;;;18.70;11.30;;;;;;;-0.00;58.94;100780.26;109782;1283;22184;-81
2024/01/22 06:43:42;;;;;;;17.80;11.50;;;;;;;-0.05;58.87;100771.07;109766;1286;22208;-81
2024/01/22 06:46:09;;;;;;;15.10;10.40;;;;;;;-0.07;58.74;100774.42;109835;1281;22433;-81
2024/01/22 06:48:36;;;;;;;16.30;11.50;;;;;;;-0.08;58.34;100786.19;110102;1276;22847;-80
2024/01/22 06:51:03;;;;;;;17.40;11.50;;;;;;;-0.13;57.98;100790.48;110236;1275;22131;-81
2024/01/22 06:53:30;;;;;;;26.40;10.80;;;;;;;-0.18;58.14;100792.38;110188;1276;22304;-81
2024/01/22 06:55:57;;;;;;;13.60;10.40;;;;;;;-0.17;58.23;100784.77;110314;1276;22816;-81
2024/01/22 06:58:24;;;;;;;16.10;10.60;;;;;;;-0.18;58.23;100770.20;110442;1276;22137;-82
2024/01/22 07:00:51;;;;;;;13.80;10.10;;;;;;;-0.16;58.23;100768.52;110236;1276;22141;-82
2024/01/22 07:03:20;;;;;;;19.00;12.00;;;;;;;-0.13;58.26;100770.74;110376;1276;22117;-81
2024/01/22 07:05:48;;;;;;;17.40;10.30;;;;;;;-0.09;58.05;100766.56;110431;1272;22288;-81
2024/01/22 07:08:17;;;;;;;16.50;10.10;;;;;;;-0.07;58.02;100767.86;110426;1276;22125;-82
2024/01/22 07:10:49;;;;;;;15.00;9.90;;;;;;;0.00;58.03;100778.37;110383;1272;22212;-81
2024/01/22 07:13:16;;;;;;;19.10;9.70;;;;;;;0.05;57.41;100788.60;110232;1276;22186;-82
2024/01/22 07:15:45;;;;;;;14.90;10.50;;;;;;;0.03;56.93;100790.77;110272;1276;22899;-82
2024/01/22 07:18:12;;;;;;;13.70;9.50;;;;;;;0.04;57.27;100791.67;109981;1281;22294;-82
2024/01/22 07:20:40;;;;;;;13.90;9.30;;;;;;;0.08;57.12;100782.30;110059;1275;22258;-82
2024/01/22 07:23:08;;;;;;;11.80;8.60;;;;;;;0.11;56.85;100788.69;109940;1281;22192;-81
2024/01/22 07:25:36;;;;;;;16.40;9.70;;;;;;;0.14;56.22;100793.29;109673;1286;22177;-80
2024/01/22 07:28:04;;;;;;;14.80;10.10;;;;;;;0.17;56.38;100802.23;109762;1286;22991;-80
2024/01/22 07:30:32;;;;;;;16.20;10.00;;;;;;;0.20;56.53;100806.33;109624;1284;22181;-82
2024/01/22 07:32:59;;;;;;;14.30;9.90;;;;;;;0.24;56.48;100803.75;109776;1286;22187;-80
2024/01/22 07:35:26;;;;;;;21.10;9.50;;;;;;;0.27;56.38;100806.09;109700;1283;23135;-80
2024/01/22 07:37:54;;;;;;;14.90;9.00;;;;;;;0.31;56.15;100801.90;109920;1283;23076;-80
2024/01/22 07:40:21;;;;;;;15.40;9.80;;;;;;;0.36;56.18;100793.11;109906;1282;22208;-81
2024/01/22 07:42:49;;;;;;;15.90;9.50;;;;;;;0.42;56.12;100792.27;109961;1276;22409;-81
2024/01/22 07:45:17;;;;;;;14.20;9.00;;;;;;;0.47;56.15;100787.31;110292;1275;22298;-83
2024/01/22 07:47:47;;;;;;;16.60;9.60;;;;;;;0.53;56.02;100781.61;110197;1276;22101;-81
2024/01/22 07:50:21;;;;;;;12.80;8.60;;;;;;;0.57;55.68;100777.27;109951;1281;22295;-82
2024/01/22 07:52:48;;;;;;;15.50;9.50;;;;;;;0.61;55.57;100773.94;109928;1283;22250;-81
2024/01/22 07:55:17;;;;;;;13.80;8.80;;;;;;;0.66;55.68;100773.45;109914;1277;22204;-82
2024/01/22 07:57:45;;;;;;;12.30;9.30;;;;;;;0.70;55.25;100765.79;109845;1277;22470;-81
2024/01/22 08:00:13;;;;;;;15.10;8.70;;;;;;;0.75;55.59;100757.80;109963;1281;22143;-82
2024/01/22 08:02:41;;;;;;;14.00;8.80;;;;;;;0.81;55.44;100751.28;109959;1278;22910;-82
2024/01/22 08:05:13;;;;;;;14.70;9.50;;;;;;;0.85;55.13;100745.52;109947;1282;22385;-83
2024/01/22 08:07:43;;;;;;;15.50;9.00;;;;;;;0.89;55.09;100736.63;110029;1276;22774;-82
2024/01/22 08:10:12;;;;;;;10.60;8.30;;;;;;;0.92;54.98;100730.02;110381;1276;22352;-82
2024/01/22 08:12:40;;;;;;;12.90;8.50;;;;;;;1.01;55.26;100727.52;110421;1275;22945;-81
2024/01/22 08:15:09;;;;;;;16.60;8.60;;;;;;;1.08;54.84;100726.20;110303;1276;22135;-83
2024/01/22 08:17:37;;;;;;;16.50;9.10;;;;;;;1.13;54.45;100729.69;110368;1276;22138;-82
2024/01/22 08:20:07;;;;;;;14.60;8.50;;;;;;;1.19;54.39;100729.88;110435;1274;22179;-83
2024/01/22 08:22:35;;;;;;;17.70;8.80;;;;;;;1.25;53.82;100725.55;110446;1276;22280;-82
2024/01/22 08:25:03;;;;;;;14.40;8.00;;;;;;;1.27;53.46;100720.77;110188;1276;22266;-83
2024/01/22 08:27:30;;;;;;;15.40;8.50;;;;;;;1.32;53.74;100716.80;110290;1276;23026;-82
2024/01/22 08:29:57;;;;;;;13.40;8.30;;;;;;;1.36;53.33;100712.95;110330;1275;22124;-81
2024/01/22 08:32:25;;;;;;;16.20;9.00;;;;;;;1.39;53.28;100705.92;109950;1282;22124;-80
2024/01/22 08:34:53;;;;;;;16.00;9.20;;;;;;;1.42;52.70;100701.85;110086;1279;22243;-82
2024/01/22 08:37:20;;;;;;;15.70;8.70;;;;;;;1.43;52.69;100697.56;109939;1283;22234;-81
2024/01/22 08:39:48;;;;;;;13.80;8.80;;;;;;;1.49;52.96;100688.20;109939;1282;22557;-81
2024/01/22 08:42:15;;;;;;;14.20;9.20;;;;;;;1.50;52.40;100683.54;109997;1283;22198;-83
2024/01/22 08:44:42;;;;;;;19.90;9.40;;;;;;;1.49;52.43;100682.14;109941;1283;22159;-81
2024/01/22 08:47:09;;;;;;;14.00;8.60;;;;;;;1.50;52.42;100680.23;109923;1282;22925;-81
2024/01/22 08:49:38;;;;;;;13.60;9.10;;;;;;;1.53;52.31;100675.32;109936;1276;22380;-81
2024/01/22 08:52:05;;;;;;;15.00;9.00;;;;;;;1.55;52.31;100673.45;110250;1276;22193;-82
2024/01/22 08:54:34;;;;;;;14.00;9.10;;;;;;;1.56;51.87;100659.95;110301;1276;22583;-82
2024/01/22 08:57:02;;;;;;;15.60;8.90;;;;;;;1.60;52.08;100662.87;110432;1276;22111;-82
2024/01/22 08:59:29;;;;;;;14.30;8.90;;;;;;;1.66;52.02;100657.83;110263;1272;22300;-82
2024/01/22 09:01:56;;;;;;;16.20;9.40;;;;;;;1.72;52.37;100655.79;110268;1272;22222;-81
2024/01/22 09:04:23;;;;;;;15.70;9.50;;;;;;;1.79;52.33;100657.71;109975;1282;22189;-81
2024/01/22 09:06:53;;;;;;;14.90;8.90;;;;;;;1.79;51.74;100652.51;109920;1278;22246;-83
2024/01/22 09:09:20;;;;;;;17.80;9.10;;;;;;;1.83;51.81;100646.02;110050;1279;22991;-83
2024/01/22 09:11:47;;;;;;;15.40;8.90;;;;;;;1.88;51.66;100636.44;110021;1281;22351;-84
2024/01/22 09:14:17;;;;;;;14.30;9.60;;;;;;;1.94;51.91;100628.99;109993;1281;22168;-84
2024/01/22 09:16:46;;;;;;;15.40;8.80;;;;;;;2.00;51.81;100623.79;109979;1279;22276;-83
2024/01/22 09:19:14;;;;;;;13.00;8.60;;;;;;;2.08;51.58;100620.68;110007;1281;22199;-84
2024/01/22 09:21:42;;;;;;;14.00;9.00;;;;;;;2.14;51.27;100613.77;110049;1275;22239;-82
2024/01/22 09:24:11;;;;;;;13.00;8.40;;;;;;;2.20;50.93;100612.02;110052;1276;22111;-83
2024/01/22 09:26:40;;;;;;;12.80;7.90;;;;;;;2.27;50.82;100606.11;110306;1275;23000;-83
2024/01/22 09:29:07;;;;;;;13.80;7.00;;;;;;;2.31;49.76;100605.89;110290;1276;22126;-83
2024/01/22 09:31:35;;;;;;;11.90;7.20;;;;;;;2.37;50.19;100607.97;110354;1275;22133;-82
2024/01/22 09:34:04;;;;;;;11.70;7.10;;;;;;;2.43;49.39;100605.86;110196;1276;22110;-83
2024/01/22 09:36:33;;;;;;;10.50;7.70;;;;;;;2.48;49.12;100601.33;110162;1275;22109;-82
2024/01/22 09:39:00;;;;;;;13.60;8.00;;;;;;;2.54;48.92;100591.05;110082;1276;22137;-83
2024/01/22 09:41:27;;;;;;;12.70;7.20;;;;;;;2.58;48.96;100595.34;110311;1275;22293;-83
2024/01/22 09:43:55;;;;;;;11.30;6.50;;;;;;;2.64;48.78;100590.62;110167;1277;22197;-83
2024/01/22 09:46:23;;;;;;;12.10;7.80;;;;;;;2.71;48.38;100587.30;110199;1275;22299;-82
2024/01/22 09:48:50;;;;;;;14.70;7.00;;;;;;;2.76;48.23;100586.40;110138;1276;22602;-82
2024/01/22 09:51:18;;;;;;;9.20;6.60;;;;;;;2.80;48.06;100578.85;110147;1276;22758;-83
2024/01/22 09:53:46;;;;;;;12.60;6.10;;;;;;;2.83;47.51;100571.29;110187;1277;22135;-84
2024/01/22 09:56:20;;;;;;;10.60;6.00;;;;;;;2.88;47.27;100561.83;110316;1275;22116;-83
2024/01/22 09:58:55;;;;;;;12.20;6.20;;;;;;;2.90;47.12;100546.75;110153;1276;22236;-86
2024/01/22 10:01:24;;;;;;;12.40;6.30;;;;;;;2.93;46.91;100528.91;110343;1275;22314;-84
2024/01/22 10:03:52;;;;;;;9.20;5.50;;;;;;;2.97;46.58;100512.80;110267;1276;22123;-82
2024/01/22 10:06:21;;;;;;;12.10;6.40;;;;;;;3.00;45.74;100505.92;110165;1268;22311;-83
2024/01/22 10:08:58;;;;;;;10.90;6.20;;;;;;;3.02;46.10;100511.19;110281;1276;22122;-82
2024/01/22 10:11:27;;;;;;;8.50;5.90;;;;;;;3.06;45.98;100511.13;110341;1275;23014;-81
2024/01/22 10:13:56;;;;;;;8.80;6.30;;;;;;;3.08;45.39;100502.99;110560;1276;22376;-84
2024/01/22 10:16:28;;;;;;;11.80;6.10;;;;;;;3.09;45.06;100499.52;110555;1276;22133;-84
2024/01/22 10:18:57;;;;;;;9.90;6.00;;;;;;;3.11;45.23;100502.00;109359;1275;1364600;-84
2024/01/22 10:21:28;;;;;;;10.80;5.80;;;;;;;3.13;45.34;100488.83;110052;1281;22141;-83
2024/01/22 10:24:09;;;;;;;9.60;6.20;;;;;;;3.15;45.18;100484.52;110114;1278;22285;-82
2024/01/22 10:26:36;;;;;;;8.30;5.80;;;;;;;3.17;45.17;100469.59;109949;1281;22855;-83
2024/01/22 10:29:22;;;;;;;12.60;6.00;;;;;;;3.18;45.07;100459.70;109938;1278;23091;-83
2024/01/22 10:31:58;;;;;;;12.80;6.10;;;;;;;3.19;45.07;100449.78;109939;1281;22171;-83
2024/01/22 10:34:30;;;;;;;9.60;5.50;;;;;;;3.22;44.57;100434.55;109921;1281;22252;-83
2024/01/22 10:37:07;;;;;;;11.90;5.70;;;;;;;3.26;44.81;100407.99;109964;1281;22240;-83
2024/01/22 10:39:39;;;;;;;8.70;6.30;;;;;;;3.31;45.10;100375.39;110205;1276;22093;-83
2024/01/22 10:42:10;;;;;;;11.50;6.70;;;;;;;3.36;44.83;100398.63;110223;1276;22982;-83
2024/01/22 10:44:39;;;;;;;13.40;6.10;;;;;;;3.39;44.16;100383.89;110544;1275;23161;-81
2024/01/22 10:47:06;;;;;;;10.40;5.90;;;;;;;3.43;44.44;100379.10;110257;1276;22233;-82
2024/01/22 10:49:34;;;;;;;10.10;6.20;;;;;;;3.48;44.68;100380.92;109921;1283;22174;-82
2024/01/22 10:52:04;;;;;;;9.60;5.90;;;;;;;3.54;45.26;100376.01;109926;1280;22872;-83
2024/01/22 10:54:38;;;;;;;12.80;6.30;;;;;;;3.58;45.52;100370.51;109791;1283;22169;-84
2024/01/22 10:57:37;;;;;;;12.20;6.00;;;;;;;3.63;45.46;100382.09;110017;1280;22273;-83
2024/01/22 11:00:09;;;;;;;10.90;5.50;;;;;;;3.65;45.35;100375.69;108890;1282;22234;-83
2024/01/22 11:02:42;;;;;;;9.30;6.00;;;;;;;3.66;44.87;100370.15;108286;1299;22198;-84
2024/01/22 11:05:15;;;;;;;12.10;5.90;;;;;;;3.66;44.73;100376.59;108308;1302;22950;-82
2024/01/22 11:07:48;;;;;;;8.90;6.20;;;;;;;3.69;44.83;100363.06;108315;1302;22982;-82
2024/01/22 11:10:16;;;;;;;9.20;5.30;;;;;;;3.75;45.22;100351.14;108255;1302;22283;-82
2024/01/22 11:12:54;;;;;;;9.80;5.70;;;;;;;3.78;44.44;100347.70;108354;1298;22918;-83
2024/01/22 11:15:23;;;;;;;9.90;6.20;;;;;;;3.78;44.17;100343.35;108738;1297;23050;-83